Joffre, Pennsylvania
Current Conditions -  °F | °C
As of 12:51 PM on Thursday 23 Oct 2014 (Local Time) from KPIT Reporting Station
Scattered Clouds Scattered Clouds  
Wind Chill: 58°   Ceiling: Unl
Heat Index: 58°   Visibility: 10mi
Dew Point: 43°   Wind: 12mph
Humidity: 58%   Direction: 320°NW
Pressure: 30.1"   Gusts: 21mph
Location:  40.38°N, 80.36°W
Report Text: KPIT 231651Z 32010G18KT 10SM SCT033 14/06 A3010 RMK AO2 SLP203 T01440061
Loading
Personal Weather Stations






























Interactive Weather Map New forecast layout! Learn more

10-Day Weather Forecast

Advertisements
Track Severe Weather on mobile